• Join FlightAware (Why Join?)
  • Login
  • US Flag 
02:32AM EDT


 

Airport Tracker/Info


-or-


 

Live Flight TrackerFlight Track Log ✈ VET33 ✈ 01-May-2013 ✈ KMLB - KGMU

Flight Track Log - Related Links

Times and Time Zones

All times are in EDT time to prevent confusion due to time zone crossing. See the VET33 flight status page for this flight to view local times or setup timezone preferences in your user account.

Time Position Orientation Groundspeed Altitude Reporting Facility
EDT Latitude Longitude Course Direction KTS MPH feet Rate Location/Type
01:21PM 28.1000 -80.6333 41° Northeast 68 78 500  Level Orlando TRACON
01:22PM 28.1167 -80.6167 41° Northeast 92 106 1,200 720 Climbing Orlando TRACON
01:23PM 28.1333 -80.5833 60° Northeast 110 127 2,000 540 Climbing Orlando TRACON
01:24PM 28.1500 -80.5500 60° Northeast 116 133 2,400 600 Climbing Orlando TRACON
01:25PM 28.1667 -80.5500 360° North 114 131 3,300 720 Climbing Orlando TRACON
01:26PM 28.1833 -80.5833 300° West 117 135 3,900 660 Climbing Orlando TRACON
01:27PM 28.2167 -80.6167 319° Northwest 115 132 4,700 660 Climbing Orlando TRACON
01:28PM 28.2333 -80.6333 319° Northwest 113 130 5,200 660 Climbing Orlando TRACON
01:29PM 28.2500 -80.6667 300° West 113 130 5,900 600 Climbing Orlando TRACON
01:30PM 28.2833 -80.6833 336° Northwest 114 131 6,600 480 Climbing Orlando TRACON
01:31PM 28.3167 -80.7000 336° Northwest 116 133 7,000 240 Climbing Orlando TRACON
01:32PM 28.3500 -80.7167 336° Northwest 144 166 7,100  Climbing Orlando TRACON
01:33PM 28.4000 -80.7333 344° North 169 194 7,000 -60 Descending Orlando TRACON
01:34PM 28.4333 -80.7500 336° Northwest 166 191 7,000  Level Orlando TRACON
01:35PM 28.4833 -80.7667 344° North 163 188 7,100  Climbing Orlando TRACON
01:36PM 28.5167 -80.7833 336° Northwest 164 189 7,100  Level Orlando TRACON
01:37PM 28.5667 -80.8167 330° Northwest 164 189 7,100  Level Orlando TRACON
01:38PM 28.6000 -80.8333 336° Northwest 166 191 7,100  Level Orlando TRACON
01:39PM 28.6333 -80.8500 336° Northwest 166 191 7,100  Level Orlando TRACON
01:40PM 28.7000 -80.8667 348° North 167 192 7,100  Level Orlando TRACON
01:41PM 28.7167 -80.8833 319° Northwest 166 191 7,100  Level Orlando TRACON
01:43PM 28.8067 -80.9164 342° North 165 190 7,100  Level Jacksonville Center
01:44PM 28.8508 -80.9344 340° North 167 192 7,100  Level Jacksonville Center
01:45PM 28.8950 -80.9503 343° North 167 192 7,100  Level Jacksonville Center
01:46PM 28.9433 -80.9731 338° Northwest 166 191 7,100  Level Jacksonville Center
01:47PM 28.9853 -80.9867 344° North 166 191 7,100  Level Jacksonville Center
01:48PM 29.0292 -81.0069 338° Northwest 166 191 7,100  Level Jacksonville Center
01:49PM 29.0650 -81.0231 339° North 167 192 7,100  Level Jacksonville Center
01:50PM 29.1111 -81.0389 343° North 165 190 7,100  Level Jacksonville Center
01:51PM 29.1617 -81.0592 341° North 165 190 7,100 -60 Level Jacksonville Center
01:52PM 29.2097 -81.0797 340° North 168 193 7,000  Descending Jacksonville Center
01:53PM 29.2519 -81.0956 342° North 168 193 7,100  Climbing Jacksonville Center
01:54PM 29.3042 -81.1161 341° North 165 190 7,000  Descending Jacksonville Center
01:55PM 29.3567 -81.1319 345° North 164 189 7,100  Climbing Jacksonville Center
01:56PM 29.4025 -81.1333 358° North 164 189 7,100  Level Jacksonville Center
01:57PM 29.4444 -81.1444 347° North 164 189 7,100  Level Jacksonville Center
01:58PM 29.4906 -81.1533 350° North 161 185 7,100  Level Jacksonville Center
01:59PM 29.5283 -81.1575 355° North 163 188 7,100  Level Jacksonville Center
02:00PM 29.5847 -81.1706 349° North 163 188 7,100  Level Jacksonville Center
02:01PM 29.6286 -81.1747 355° North 164 189 7,100  Level Jacksonville Center
02:02PM 29.6622 -81.1814 350° North 165 190 7,100  Level Jacksonville Center
02:03PM 29.6853 -81.1881 346° North 162 186 7,100  Level Jacksonville Center
02:04PM 29.7353 -81.1944 354° North 164 189 7,100  Level Jacksonville Center
02:05PM 29.7856 -81.2056 349° North 166 191 7,100  Level Jacksonville Center
02:06PM 29.8275 -81.2142 350° North 166 191 7,100  Level Jacksonville Center
02:07PM 29.8736 -81.2231 351° North 165 190 7,100  Level Jacksonville Center
02:08PM 29.9175 -81.2342 348° North 166 191 7,100  Level Jacksonville Center
02:09PM 29.9656 -81.2456 348° North 169 194 7,100  Level Jacksonville Center
02:10PM 30.0117 -81.2567 348° North 167 192 7,100  Level Jacksonville Center
02:11PM 30.0578 -81.2631 353° North 171 197 7,100  Level Jacksonville Center
02:12PM 30.1039 -81.2719 351° North 171 197 7,100  Level Jacksonville Center
02:13PM 30.1500 -81.2881 343° North 171 197 7,100  Level Jacksonville Center
02:14PM 30.2022 -81.2967 352° North 170 196 7,100  Level Jacksonville Center
02:15PM 30.2503 -81.3081 348° North 171 197 7,100  Level Jacksonville Center
02:16PM 30.2922 -81.3144 353° North 170 196 7,100  Level Jacksonville Center
02:17PM 30.3447 -81.3281 347° North 171 197 7,100  Level Jacksonville Center
02:18PM 30.3864 -81.3344 352° North 170 196 7,100  Level Jacksonville Center
02:18PM 30.4053 -81.3414 342° North 169 194 7,100  Level Jacksonville Center
02:19PM 30.4431 -81.3481 351° North 169 194 7,100  Level Jacksonville Center
02:20PM 30.4869 -81.3569 350° North 170 196 7,100  Level Jacksonville Center
02:21PM 30.5331 -81.3708 345° North 171 197 7,100  Level Jacksonville Center
02:22PM 30.5811 -81.3797 351° North 169 194 7,100  Level Jacksonville Center
02:23PM 30.6272 -81.3886 351° North 174 200 7,100  Level Jacksonville Center
02:24PM 30.6733 -81.4000 348° North 174 200 7,100  Level Jacksonville Center
02:25PM 30.7214 -81.4114 348° North 169 194 7,100 -60 Level Jacksonville Center
02:26PM 30.7675 -81.4203 351° North 169 194 7,000 -60 Descending Jacksonville Center
02:27PM 30.8156 -81.4292 351° North 169 194 7,000  Level Jacksonville Center
02:28PM 30.8636 -81.4186 11° North 169 194 7,000  Level Jacksonville Center
02:29PM 30.9092 -81.4083 11° North 164 189 7,000  Level Jacksonville Center
02:30PM 30.9553 -81.4028 North 164 189 7,000  Level Jacksonville Center
02:31PM 31.0053 -81.3947 North 164 189 7,000  Level Jacksonville Center
02:32PM 31.0531 -81.3867 North 164 189 7,000  Level Jacksonville Center
02:33PM 31.1053 -81.3761 10° North 164 189 7,000  Level Jacksonville Center
02:34PM 31.1553 -81.3656 10° North 164 189 7,000  Level Jacksonville Center
02:35PM 31.1969 -81.3600 North 164 189 7,000  Level Jacksonville Center
02:36PM 31.2469 -81.3519 North 164 189 7,000  Level Jacksonville Center
02:37PM 31.2928 -81.3439 North 164 189 7,000  Level Jacksonville Center
02:38PM 31.3406 -81.3383 North 164 189 7,000  Level Jacksonville Center
02:39PM 31.3822 -81.3303 North 164 189 7,000  Level Jacksonville Center
02:40PM 31.4281 -81.3247 North 164 189 7,000  Level Jacksonville Center
02:41PM 31.4781 -81.3139 10° North 164 189 7,000  Level Jacksonville Center
02:42PM 31.5239 -81.3058 North 164 189 7,000  Level Jacksonville Center
02:43PM 31.5697 -81.2978 North 164 189 7,000  Level Jacksonville Center
02:44PM 31.6114 -81.2922 North 164 189 7,000  Level Jacksonville Center
02:45PM 31.6614 -81.2817 10° North 159 183 7,000  Level Jacksonville Center
02:46PM 31.7053 -81.2761 North 159 183 7,000  Level Jacksonville Center
02:47PM 31.7511 -81.2678 North 159 183 7,000  Level Jacksonville Center
02:48PM 31.7906 -81.2622 North 159 183 7,000  Level Jacksonville Center
02:50PM 31.8477 -81.2491 11° North  Level FlightAware Approximate
02:57PM 32.1475 -81.1886 342° North  Level FlightAware Approximate
02:58PM 32.1891 -81.2042 342° North  Level FlightAware Approximate
02:59PM 32.2307 -81.2198 342° North  Level FlightAware Approximate
03:00PM 32.2722 -81.2358 339° North  Level FlightAware Approximate
03:01PM 32.3129 -81.2543 339° North  Level FlightAware Approximate
03:02PM 32.3537 -81.2728 339° North  Level FlightAware Approximate
03:03PM 32.3945 -81.2913 339° North  Level FlightAware Approximate
03:03PM 32.4575 -81.3292 339° North 171 197 7,100  Level Jacksonville Center
03:04PM 32.4352 -81.3098 339° North  Level FlightAware Approximate
03:04PM 32.5017 -81.3506 338° Northwest 171 197 7,100  Level Jacksonville Center
03:05PM 32.4759 -81.3283 339° North  Level FlightAware Approximate
03:05PM 32.5497 -81.3694 342° North 171 197 7,100  Level Jacksonville Center
03:06PM 32.5167 -81.3468 339° North  Level FlightAware Approximate
03:06PM 32.5897 -81.3886 338° Northwest 171 197 7,100  Level Jacksonville Center
03:07PM 32.5574 -81.3654 339° North  Level FlightAware Approximate
03:07PM 32.6275 -81.4053 340° North 171 197 7,100  Level Jacksonville Center
03:08PM 32.5982 -81.3840 339° North  Level FlightAware Approximate
03:08PM 32.6736 -81.4242 341° North 171 197 7,100  Level Jacksonville Center
03:09PM 32.7219 -81.4406 344° North 171 197 7,100  Level Jacksonville Center
03:10PM 32.7681 -81.4572 343° North 171 197 7,100  Level Jacksonville Center
03:11PM 32.8119 -81.4764 340° North 171 197 7,100  Level Jacksonville Center
03:12PM 32.8561 -81.4953 340° North 171 197 7,100  Level Jacksonville Center
03:14PM 32.9191 -81.5223 340° North  Level FlightAware Approximate
03:21PM 33.2076 -81.6422 341° North  Level FlightAware Approximate
03:22PM 33.2489 -81.6592 341° North  Level FlightAware Approximate
03:23PM 33.2901 -81.6762 341° North  Level FlightAware Approximate
03:24PM 33.3314 -81.6933 341° North  Level FlightAware Approximate
03:25PM 33.3726 -81.7103 341° North  Level FlightAware Approximate
03:26PM 33.4139 -81.7274 341° North  Level FlightAware Approximate
03:27PM 33.4551 -81.7445 341° North  Level FlightAware Approximate
03:28PM 33.4964 -81.7616 341° North  Level FlightAware Approximate